sensor_id;sensor_type;location;lat;lon;timestamp;P1;durP1;ratioP1;P2;durP2;ratioP2
35518;SDS011;21627;48.216;16.482;2024-03-07T00:00:26;16.98;;;11.43;;
35518;SDS011;21627;48.216;16.482;2024-03-07T00:02:54;16.48;;;10.57;;
35518;SDS011;21627;48.216;16.482;2024-03-07T00:05:21;16.83;;;11.27;;
35518;SDS011;21627;48.216;16.482;2024-03-07T00:07:52;17.13;;;11.98;;
35518;SDS011;21627;48.216;16.482;2024-03-07T00:10:20;16.40;;;11.70;;
35518;SDS011;21627;48.216;16.482;2024-03-07T00:12:48;16.50;;;11.45;;
35518;SDS011;21627;48.216;16.482;2024-03-07T00:15:15;15.88;;;10.88;;
35518;SDS011;21627;48.216;16.482;2024-03-07T00:17:44;19.42;;;12.27;;
35518;SDS011;21627;48.216;16.482;2024-03-07T00:20:12;18.77;;;11.85;;
35518;SDS011;21627;48.216;16.482;2024-03-07T00:22:46;22.38;;;12.52;;
35518;SDS011;21627;48.216;16.482;2024-03-07T00:25:13;17.85;;;11.88;;
35518;SDS011;21627;48.216;16.482;2024-03-07T00:27:45;17.23;;;11.63;;
35518;SDS011;21627;48.216;16.482;2024-03-07T00:30:12;20.67;;;12.60;;
35518;SDS011;21627;48.216;16.482;2024-03-07T00:32:40;17.15;;;12.23;;
35518;SDS011;21627;48.216;16.482;2024-03-07T00:35:08;19.10;;;11.82;;
35518;SDS011;21627;48.216;16.482;2024-03-07T00:37:36;15.93;;;11.10;;
35518;SDS011;21627;48.216;16.482;2024-03-07T00:40:03;18.83;;;11.88;;
35518;SDS011;21627;48.216;16.482;2024-03-07T00:42:32;20.48;;;11.70;;
35518;SDS011;21627;48.216;16.482;2024-03-07T00:45:00;18.02;;;11.50;;
35518;SDS011;21627;48.216;16.482;2024-03-07T00:47:27;17.00;;;11.18;;
35518;SDS011;21627;48.216;16.482;2024-03-07T00:49:55;16.27;;;11.82;;
35518;SDS011;21627;48.216;16.482;2024-03-07T00:52:22;18.55;;;10.88;;
35518;SDS011;21627;48.216;16.482;2024-03-07T00:54:49;20.02;;;11.35;;
35518;SDS011;21627;48.216;16.482;2024-03-07T00:57:16;18.83;;;11.63;;
35518;SDS011;21627;48.216;16.482;2024-03-07T00:59:43;18.13;;;11.00;;
35518;SDS011;21627;48.216;16.482;2024-03-07T01:02:10;18.90;;;11.43;;
35518;SDS011;21627;48.216;16.482;2024-03-07T01:04:38;18.45;;;11.27;;
35518;SDS011;21627;48.216;16.482;2024-03-07T01:07:05;18.17;;;11.15;;
35518;SDS011;21627;48.216;16.482;2024-03-07T01:09:33;18.77;;;11.38;;
35518;SDS011;21627;48.216;16.482;2024-03-07T01:12:01;17.58;;;10.80;;
35518;SDS011;21627;48.216;16.482;2024-03-07T01:14:32;18.80;;;11.13;;
35518;SDS011;21627;48.216;16.482;2024-03-07T01:16:59;19.63;;;11.38;;
35518;SDS011;21627;48.216;16.482;2024-03-07T01:19:26;21.35;;;11.05;;
35518;SDS011;21627;48.216;16.482;2024-03-07T01:21:53;17.33;;;11.32;;
35518;SDS011;21627;48.216;16.482;2024-03-07T01:24:21;19.10;;;11.90;;
35518;SDS011;21627;48.216;16.482;2024-03-07T01:26:49;16.55;;;10.55;;
35518;SDS011;21627;48.216;16.482;2024-03-07T01:29:16;18.83;;;11.27;;
35518;SDS011;21627;48.216;16.482;2024-03-07T01:31:44;21.90;;;11.02;;
35518;SDS011;21627;48.216;16.482;2024-03-07T01:34:11;18.13;;;10.57;;
35518;SDS011;21627;48.216;16.482;2024-03-07T01:36:38;17.30;;;10.60;;
35518;SDS011;21627;48.216;16.482;2024-03-07T01:39:05;18.48;;;11.15;;
35518;SDS011;21627;48.216;16.482;2024-03-07T01:41:32;19.48;;;11.63;;
35518;SDS011;21627;48.216;16.482;2024-03-07T01:44:01;16.73;;;10.50;;
35518;SDS011;21627;48.216;16.482;2024-03-07T01:46:28;18.70;;;10.93;;
35518;SDS011;21627;48.216;16.482;2024-03-07T01:48:56;20.02;;;11.45;;
35518;SDS011;21627;48.216;16.482;2024-03-07T01:51:25;20.63;;;11.13;;
35518;SDS011;21627;48.216;16.482;2024-03-07T01:53:53;20.92;;;11.27;;
35518;SDS011;21627;48.216;16.482;2024-03-07T01:56:20;19.20;;;11.30;;
35518;SDS011;21627;48.216;16.482;2024-03-07T01:58:48;17.90;;;11.05;;
35518;SDS011;21627;48.216;16.482;2024-03-07T02:01:18;18.60;;;11.20;;
35518;SDS011;21627;48.216;16.482;2024-03-07T02:03:45;19.67;;;12.02;;
35518;SDS011;21627;48.216;16.482;2024-03-07T02:06:12;18.88;;;10.63;;
35518;SDS011;21627;48.216;16.482;2024-03-07T02:08:40;15.80;;;9.98;;
35518;SDS011;21627;48.216;16.482;2024-03-07T02:11:07;17.30;;;10.57;;
35518;SDS011;21627;48.216;16.482;2024-03-07T02:13:36;15.88;;;10.32;;
35518;SDS011;21627;48.216;16.482;2024-03-07T02:16:03;18.52;;;10.77;;
35518;SDS011;21627;48.216;16.482;2024-03-07T02:18:31;17.58;;;9.73;;
35518;SDS011;21627;48.216;16.482;2024-03-07T02:20:59;19.05;;;10.40;;
35518;SDS011;21627;48.216;16.482;2024-03-07T02:23:26;14.57;;;8.80;;
35518;SDS011;21627;48.216;16.482;2024-03-07T02:25:54;22.38;;;11.50;;
35518;SDS011;21627;48.216;16.482;2024-03-07T02:28:21;18.42;;;11.15;;
35518;SDS011;21627;48.216;16.482;2024-03-07T02:30:48;20.55;;;11.93;;
35518;SDS011;21627;48.216;16.482;2024-03-07T02:33:15;20.00;;;11.52;;
35518;SDS011;21627;48.216;16.482;2024-03-07T02:35:42;18.58;;;10.55;;
35518;SDS011;21627;48.216;16.482;2024-03-07T02:38:10;18.48;;;11.05;;
35518;SDS011;21627;48.216;16.482;2024-03-07T02:40:37;17.95;;;11.93;;
35518;SDS011;21627;48.216;16.482;2024-03-07T02:43:04;21.25;;;12.63;;
35518;SDS011;21627;48.216;16.482;2024-03-07T02:45:31;21.73;;;13.23;;
35518;SDS011;21627;48.216;16.482;2024-03-07T02:47:59;20.27;;;13.02;;
35518;SDS011;21627;48.216;16.482;2024-03-07T02:50:26;21.35;;;13.05;;
35518;SDS011;21627;48.216;16.482;2024-03-07T02:52:53;23.45;;;13.55;;
35518;SDS011;21627;48.216;16.482;2024-03-07T02:55:20;25.58;;;13.30;;
35518;SDS011;21627;48.216;16.482;2024-03-07T02:57:48;24.98;;;13.15;;
35518;SDS011;21627;48.216;16.482;2024-03-07T03:00:15;23.40;;;12.80;;
35518;SDS011;21627;48.216;16.482;2024-03-07T03:02:53;22.63;;;12.45;;
35518;SDS011;21627;48.216;16.482;2024-03-07T03:05:21;20.58;;;12.10;;
35518;SDS011;21627;48.216;16.482;2024-03-07T03:07:49;20.08;;;12.07;;
35518;SDS011;21627;48.216;16.482;2024-03-07T03:10:23;21.40;;;12.25;;
35518;SDS011;21627;48.216;16.482;2024-03-07T03:12:57;22.40;;;12.32;;
35518;SDS011;21627;48.216;16.482;2024-03-07T03:15:26;21.40;;;11.63;;
35518;SDS011;21627;48.216;16.482;2024-03-07T03:17:54;21.92;;;12.57;;
35518;SDS011;21627;48.216;16.482;2024-03-07T03:20:23;19.95;;;11.98;;
35518;SDS011;21627;48.216;16.482;2024-03-07T03:22:54;21.60;;;12.20;;
35518;SDS011;21627;48.216;16.482;2024-03-07T03:25:24;24.95;;;13.13;;
35518;SDS011;21627;48.216;16.482;2024-03-07T03:27:52;22.02;;;13.25;;
35518;SDS011;21627;48.216;16.482;2024-03-07T03:30:19;22.05;;;12.52;;
35518;SDS011;21627;48.216;16.482;2024-03-07T03:32:48;20.45;;;12.18;;
35518;SDS011;21627;48.216;16.482;2024-03-07T03:35:16;22.58;;;11.85;;
35518;SDS011;21627;48.216;16.482;2024-03-07T03:37:43;23.63;;;12.23;;
35518;SDS011;21627;48.216;16.482;2024-03-07T03:40:10;21.67;;;11.90;;
35518;SDS011;21627;48.216;16.482;2024-03-07T03:42:42;19.90;;;11.63;;
35518;SDS011;21627;48.216;16.482;2024-03-07T03:45:09;20.35;;;10.45;;
35518;SDS011;21627;48.216;16.482;2024-03-07T03:47:41;19.40;;;10.95;;
35518;SDS011;21627;48.216;16.482;2024-03-07T03:50:13;18.70;;;10.43;;
35518;SDS011;21627;48.216;16.482;2024-03-07T03:52:41;17.50;;;10.85;;
35518;SDS011;21627;48.216;16.482;2024-03-07T03:55:08;18.45;;;10.82;;
35518;SDS011;21627;48.216;16.482;2024-03-07T03:57:39;17.90;;;11.07;;
35518;SDS011;21627;48.216;16.482;2024-03-07T04:00:09;19.45;;;11.13;;
35518;SDS011;21627;48.216;16.482;2024-03-07T04:02:40;19.90;;;10.95;;
35518;SDS011;21627;48.216;16.482;2024-03-07T04:05:10;18.45;;;10.38;;
35518;SDS011;21627;48.216;16.482;2024-03-07T04:07:40;16.27;;;9.73;;
35518;SDS011;21627;48.216;16.482;2024-03-07T04:10:11;16.88;;;10.10;;
35518;SDS011;21627;48.216;16.482;2024-03-07T04:12:39;14.55;;;9.05;;
35518;SDS011;21627;48.216;16.482;2024-03-07T04:15:07;17.77;;;10.23;;
35518;SDS011;21627;48.216;16.482;2024-03-07T04:17:37;16.45;;;9.48;;
35518;SDS011;21627;48.216;16.482;2024-03-07T04:20:05;17.60;;;10.40;;
35518;SDS011;21627;48.216;16.482;2024-03-07T04:22:34;14.63;;;9.75;;
35518;SDS011;21627;48.216;16.482;2024-03-07T04:25:02;15.82;;;9.15;;
35518;SDS011;21627;48.216;16.482;2024-03-07T04:27:30;17.83;;;9.90;;
35518;SDS011;21627;48.216;16.482;2024-03-07T04:29:57;16.60;;;9.60;;
35518;SDS011;21627;48.216;16.482;2024-03-07T04:32:24;19.48;;;9.18;;
35518;SDS011;21627;48.216;16.482;2024-03-07T04:34:51;15.07;;;9.55;;
35518;SDS011;21627;48.216;16.482;2024-03-07T04:37:18;15.40;;;9.90;;
35518;SDS011;21627;48.216;16.482;2024-03-07T04:39:45;16.75;;;9.68;;
35518;SDS011;21627;48.216;16.482;2024-03-07T04:42:13;17.17;;;10.27;;
35518;SDS011;21627;48.216;16.482;2024-03-07T04:44:40;17.73;;;9.95;;
35518;SDS011;21627;48.216;16.482;2024-03-07T04:47:07;16.10;;;9.75;;
35518;SDS011;21627;48.216;16.482;2024-03-07T04:49:34;17.80;;;10.13;;
35518;SDS011;21627;48.216;16.482;2024-03-07T04:52:02;16.63;;;10.00;;
35518;SDS011;21627;48.216;16.482;2024-03-07T04:54:31;18.52;;;10.50;;
35518;SDS011;21627;48.216;16.482;2024-03-07T04:56:58;18.65;;;10.63;;
35518;SDS011;21627;48.216;16.482;2024-03-07T04:59:26;19.13;;;11.23;;
35518;SDS011;21627;48.216;16.482;2024-03-07T05:01:53;17.05;;;10.20;;
35518;SDS011;21627;48.216;16.482;2024-03-07T05:04:20;14.90;;;9.60;;
35518;SDS011;21627;48.216;16.482;2024-03-07T05:06:50;17.00;;;10.05;;
35518;SDS011;21627;48.216;16.482;2024-03-07T05:09:17;15.88;;;9.50;;
35518;SDS011;21627;48.216;16.482;2024-03-07T05:11:52;15.85;;;9.85;;
35518;SDS011;21627;48.216;16.482;2024-03-07T05:14:20;29.50;;;11.40;;
35518;SDS011;21627;48.216;16.482;2024-03-07T05:16:48;16.63;;;11.10;;
35518;SDS011;21627;48.216;16.482;2024-03-07T05:19:32;16.13;;;10.73;;
35518;SDS011;21627;48.216;16.482;2024-03-07T05:22:00;20.00;;;11.63;;
35518;SDS011;21627;48.216;16.482;2024-03-07T05:24:29;17.08;;;10.93;;
35518;SDS011;21627;48.216;16.482;2024-03-07T05:26:56;18.50;;;10.77;;
35518;SDS011;21627;48.216;16.482;2024-03-07T05:29:24;17.88;;;10.68;;
35518;SDS011;21627;48.216;16.482;2024-03-07T05:31:51;18.10;;;11.65;;
35518;SDS011;21627;48.216;16.482;2024-03-07T05:34:18;17.30;;;11.27;;
35518;SDS011;21627;48.216;16.482;2024-03-07T05:36:46;19.98;;;11.43;;
35518;SDS011;21627;48.216;16.482;2024-03-07T05:39:14;14.38;;;10.95;;
35518;SDS011;21627;48.216;16.482;2024-03-07T05:41:44;18.80;;;10.52;;
35518;SDS011;21627;48.216;16.482;2024-03-07T05:44:12;17.95;;;11.27;;
35518;SDS011;21627;48.216;16.482;2024-03-07T05:46:42;25.23;;;11.10;;
35518;SDS011;21627;48.216;16.482;2024-03-07T05:49:13;14.40;;;9.63;;
35518;SDS011;21627;48.216;16.482;2024-03-07T05:51:41;21.25;;;10.48;;
35518;SDS011;21627;48.216;16.482;2024-03-07T05:54:12;17.88;;;10.38;;
35518;SDS011;21627;48.216;16.482;2024-03-07T05:56:40;18.05;;;10.40;;
35518;SDS011;21627;48.216;16.482;2024-03-07T05:59:08;14.13;;;9.27;;
35518;SDS011;21627;48.216;16.482;2024-03-07T06:01:38;21.10;;;10.27;;
35518;SDS011;21627;48.216;16.482;2024-03-07T06:04:07;19.15;;;11.50;;
35518;SDS011;21627;48.216;16.482;2024-03-07T06:06:37;17.77;;;10.90;;
35518;SDS011;21627;48.216;16.482;2024-03-07T06:09:05;19.10;;;11.23;;
35518;SDS011;21627;48.216;16.482;2024-03-07T06:11:34;19.83;;;10.30;;
35518;SDS011;21627;48.216;16.482;2024-03-07T06:14:03;19.02;;;11.50;;
35518;SDS011;21627;48.216;16.482;2024-03-07T06:16:32;22.00;;;11.20;;
35518;SDS011;21627;48.216;16.482;2024-03-07T06:19:02;19.80;;;11.35;;
35518;SDS011;21627;48.216;16.482;2024-03-07T06:21:36;17.92;;;9.80;;
35518;SDS011;21627;48.216;16.482;2024-03-07T06:24:08;19.85;;;11.13;;
35518;SDS011;21627;48.216;16.482;2024-03-07T06:26:38;17.02;;;10.68;;
35518;SDS011;21627;48.216;16.482;2024-03-07T06:29:25;26.77;;;11.02;;
35518;SDS011;21627;48.216;16.482;2024-03-07T06:31:54;19.00;;;11.10;;
35518;SDS011;21627;48.216;16.482;2024-03-07T06:34:21;18.27;;;11.82;;
35518;SDS011;21627;48.216;16.482;2024-03-07T06:36:48;20.05;;;11.45;;
35518;SDS011;21627;48.216;16.482;2024-03-07T06:39:15;17.13;;;10.73;;
35518;SDS011;21627;48.216;16.482;2024-03-07T06:41:42;21.63;;;11.70;;
35518;SDS011;21627;48.216;16.482;2024-03-07T06:44:12;18.88;;;12.07;;
35518;SDS011;21627;48.216;16.482;2024-03-07T06:46:39;17.17;;;11.15;;
35518;SDS011;21627;48.216;16.482;2024-03-07T06:49:06;19.10;;;11.65;;
35518;SDS011;21627;48.216;16.482;2024-03-07T06:51:36;23.45;;;11.98;;
35518;SDS011;21627;48.216;16.482;2024-03-07T06:54:06;22.83;;;11.75;;
35518;SDS011;21627;48.216;16.482;2024-03-07T06:56:33;19.75;;;10.63;;
35518;SDS011;21627;48.216;16.482;2024-03-07T06:59:00;25.80;;;12.38;;
35518;SDS011;21627;48.216;16.482;2024-03-07T07:01:31;27.90;;;12.65;;
35518;SDS011;21627;48.216;16.482;2024-03-07T07:03:59;21.92;;;11.90;;
35518;SDS011;21627;48.216;16.482;2024-03-07T07:06:30;20.52;;;12.32;;
35518;SDS011;21627;48.216;16.482;2024-03-07T07:08:57;18.83;;;10.80;;
35518;SDS011;21627;48.216;16.482;2024-03-07T07:11:25;19.27;;;12.07;;
35518;SDS011;21627;48.216;16.482;2024-03-07T07:13:58;23.38;;;12.15;;
35518;SDS011;21627;48.216;16.482;2024-03-07T07:16:25;22.25;;;12.35;;
35518;SDS011;21627;48.216;16.482;2024-03-07T07:18:53;24.23;;;12.02;;
35518;SDS011;21627;48.216;16.482;2024-03-07T07:21:21;20.63;;;11.80;;
35518;SDS011;21627;48.216;16.482;2024-03-07T07:23:49;20.77;;;12.48;;
35518;SDS011;21627;48.216;16.482;2024-03-07T07:26:16;22.10;;;11.52;;
35518;SDS011;21627;48.216;16.482;2024-03-07T07:28:43;18.67;;;12.32;;
35518;SDS011;21627;48.216;16.482;2024-03-07T07:31:10;18.05;;;11.90;;
35518;SDS011;21627;48.216;16.482;2024-03-07T07:33:37;19.58;;;11.93;;
35518;SDS011;21627;48.216;16.482;2024-03-07T07:36:04;23.05;;;11.10;;
35518;SDS011;21627;48.216;16.482;2024-03-07T07:38:32;20.88;;;12.05;;
35518;SDS011;21627;48.216;16.482;2024-03-07T07:40:59;23.65;;;11.88;;
35518;SDS011;21627;48.216;16.482;2024-03-07T07:43:27;19.75;;;11.45;;
35518;SDS011;21627;48.216;16.482;2024-03-07T07:46:08;18.08;;;11.90;;
35518;SDS011;21627;48.216;16.482;2024-03-07T07:48:35;18.70;;;11.70;;
35518;SDS011;21627;48.216;16.482;2024-03-07T07:51:03;16.60;;;10.73;;
35518;SDS011;21627;48.216;16.482;2024-03-07T07:53:31;15.60;;;10.27;;
35518;SDS011;21627;48.216;16.482;2024-03-07T07:55:59;27.67;;;11.50;;
35518;SDS011;21627;48.216;16.482;2024-03-07T07:58:26;25.40;;;11.00;;
35518;SDS011;21627;48.216;16.482;2024-03-07T08:00:54;26.27;;;10.90;;
35518;SDS011;21627;48.216;16.482;2024-03-07T08:03:22;19.75;;;12.10;;
35518;SDS011;21627;48.216;16.482;2024-03-07T08:05:49;18.35;;;11.05;;
35518;SDS011;21627;48.216;16.482;2024-03-07T08:08:17;28.15;;;10.90;;
35518;SDS011;21627;48.216;16.482;2024-03-07T08:10:45;20.63;;;11.13;;
35518;SDS011;21627;48.216;16.482;2024-03-07T08:13:14;18.23;;;11.02;;
35518;SDS011;21627;48.216;16.482;2024-03-07T08:15:41;15.88;;;9.68;;
35518;SDS011;21627;48.216;16.482;2024-03-07T08:18:09;20.33;;;10.20;;
35518;SDS011;21627;48.216;16.482;2024-03-07T08:20:38;22.50;;;10.35;;
35518;SDS011;21627;48.216;16.482;2024-03-07T08:23:07;18.35;;;9.75;;
35518;SDS011;21627;48.216;16.482;2024-03-07T08:25:36;18.05;;;10.88;;
35518;SDS011;21627;48.216;16.482;2024-03-07T08:28:05;17.17;;;10.25;;
35518;SDS011;21627;48.216;16.482;2024-03-07T08:30:33;16.63;;;9.85;;
35518;SDS011;21627;48.216;16.482;2024-03-07T08:33:01;18.80;;;10.68;;
35518;SDS011;21627;48.216;16.482;2024-03-07T08:35:32;17.27;;;10.15;;
35518;SDS011;21627;48.216;16.482;2024-03-07T08:37:59;16.63;;;10.30;;
35518;SDS011;21627;48.216;16.482;2024-03-07T08:40:27;18.60;;;10.25;;
35518;SDS011;21627;48.216;16.482;2024-03-07T08:43:00;15.65;;;9.43;;
35518;SDS011;21627;48.216;16.482;2024-03-07T08:45:28;18.50;;;9.80;;
35518;SDS011;21627;48.216;16.482;2024-03-07T08:48:00;24.27;;;10.93;;
35518;SDS011;21627;48.216;16.482;2024-03-07T08:50:31;20.75;;;10.88;;
35518;SDS011;21627;48.216;16.482;2024-03-07T08:53:00;19.08;;;10.65;;
35518;SDS011;21627;48.216;16.482;2024-03-07T08:55:28;25.50;;;10.85;;
35518;SDS011;21627;48.216;16.482;2024-03-07T08:57:55;19.80;;;11.13;;
35518;SDS011;21627;48.216;16.482;2024-03-07T09:00:23;21.33;;;11.95;;
35518;SDS011;21627;48.216;16.482;2024-03-07T09:02:53;21.27;;;11.05;;
35518;SDS011;21627;48.216;16.482;2024-03-07T09:05:28;21.27;;;12.00;;
35518;SDS011;21627;48.216;16.482;2024-03-07T09:07:56;19.50;;;11.13;;
35518;SDS011;21627;48.216;16.482;2024-03-07T09:10:23;19.83;;;10.82;;
35518;SDS011;21627;48.216;16.482;2024-03-07T09:12:52;22.45;;;11.48;;
35518;SDS011;21627;48.216;16.482;2024-03-07T09:15:21;19.08;;;11.10;;
35518;SDS011;21627;48.216;16.482;2024-03-07T09:17:50;20.13;;;10.13;;
35518;SDS011;21627;48.216;16.482;2024-03-07T09:20:19;17.33;;;10.98;;
35518;SDS011;21627;48.216;16.482;2024-03-07T09:22:47;20.20;;;10.60;;
35518;SDS011;21627;48.216;16.482;2024-03-07T09:25:16;19.80;;;10.75;;
35518;SDS011;21627;48.216;16.482;2024-03-07T09:27:46;18.20;;;11.02;;
35518;SDS011;21627;48.216;16.482;2024-03-07T09:30:13;16.55;;;9.98;;
35518;SDS011;21627;48.216;16.482;2024-03-07T09:32:45;19.55;;;10.32;;
35518;SDS011;21627;48.216;16.482;2024-03-07T09:35:13;21.50;;;10.23;;
35518;SDS011;21627;48.216;16.482;2024-03-07T09:37:41;16.55;;;10.63;;
35518;SDS011;21627;48.216;16.482;2024-03-07T09:40:10;20.98;;;10.18;;
35518;SDS011;21627;48.216;16.482;2024-03-07T09:45:16;17.30;;;9.85;;
35518;SDS011;21627;48.216;16.482;2024-03-07T09:47:48;17.55;;;10.45;;
35518;SDS011;21627;48.216;16.482;2024-03-07T09:50:19;26.95;;;11.85;;
35518;SDS011;21627;48.216;16.482;2024-03-07T09:52:49;20.25;;;12.85;;
35518;SDS011;21627;48.216;16.482;2024-03-07T09:55:21;24.52;;;13.45;;
35518;SDS011;21627;48.216;16.482;2024-03-07T09:57:52;23.85;;;12.85;;
35518;SDS011;21627;48.216;16.482;2024-03-07T10:00:23;35.38;;;13.00;;
35518;SDS011;21627;48.216;16.482;2024-03-07T10:03:03;21.30;;;12.57;;
35518;SDS011;21627;48.216;16.482;2024-03-07T10:05:35;29.95;;;14.18;;
35518;SDS011;21627;48.216;16.482;2024-03-07T10:08:04;31.10;;;14.48;;
35518;SDS011;21627;48.216;16.482;2024-03-07T10:10:34;28.35;;;14.13;;
35518;SDS011;21627;48.216;16.482;2024-03-07T10:13:01;24.60;;;14.50;;
35518;SDS011;21627;48.216;16.482;2024-03-07T10:15:29;23.40;;;13.80;;
35518;SDS011;21627;48.216;16.482;2024-03-07T10:17:58;24.55;;;13.88;;
35518;SDS011;21627;48.216;16.482;2024-03-07T10:20:28;25.45;;;15.15;;
35518;SDS011;21627;48.216;16.482;2024-03-07T10:22:56;30.50;;;14.95;;
35518;SDS011;21627;48.216;16.482;2024-03-07T10:25:24;32.78;;;15.88;;
35518;SDS011;21627;48.216;16.482;2024-03-07T10:27:53;31.83;;;15.40;;
35518;SDS011;21627;48.216;16.482;2024-03-07T10:30:21;25.83;;;14.98;;
35518;SDS011;21627;48.216;16.482;2024-03-07T10:32:56;23.70;;;14.20;;
35518;SDS011;21627;48.216;16.482;2024-03-07T10:35:28;21.73;;;13.73;;
35518;SDS011;21627;48.216;16.482;2024-03-07T10:37:57;23.48;;;13.98;;
35518;SDS011;21627;48.216;16.482;2024-03-07T10:40:33;25.55;;;14.70;;
35518;SDS011;21627;48.216;16.482;2024-03-07T10:43:04;27.35;;;14.68;;
35518;SDS011;21627;48.216;16.482;2024-03-07T10:45:37;24.20;;;13.57;;
35518;SDS011;21627;48.216;16.482;2024-03-07T10:48:18;24.13;;;12.88;;
35518;SDS011;21627;48.216;16.482;2024-03-07T10:53:40;24.67;;;13.95;;
35518;SDS011;21627;48.216;16.482;2024-03-07T10:59:35;28.35;;;14.50;;
35518;SDS011;21627;48.216;16.482;2024-03-07T11:04:56;27.13;;;15.73;;
35518;SDS011;21627;48.216;16.482;2024-03-07T11:07:25;30.30;;;15.93;;
35518;SDS011;21627;48.216;16.482;2024-03-07T11:09:54;31.52;;;16.00;;
35518;SDS011;21627;48.216;16.482;2024-03-07T11:12:22;26.40;;;16.10;;
35518;SDS011;21627;48.216;16.482;2024-03-07T11:14:51;28.80;;;15.95;;
35518;SDS011;21627;48.216;16.482;2024-03-07T11:17:20;29.17;;;17.20;;
35518;SDS011;21627;48.216;16.482;2024-03-07T11:19:48;30.75;;;15.32;;
35518;SDS011;21627;48.216;16.482;2024-03-07T11:22:31;34.00;;;17.17;;
35518;SDS011;21627;48.216;16.482;2024-03-07T11:25:01;24.92;;;14.85;;
35518;SDS011;21627;48.216;16.482;2024-03-07T11:27:36;29.23;;;17.23;;
35518;SDS011;21627;48.216;16.482;2024-03-07T11:30:06;36.50;;;16.98;;
35518;SDS011;21627;48.216;16.482;2024-03-07T11:32:35;30.55;;;16.70;;
35518;SDS011;21627;48.216;16.482;2024-03-07T11:35:05;29.60;;;17.02;;
35518;SDS011;21627;48.216;16.482;2024-03-07T11:37:42;36.83;;;17.25;;
35518;SDS011;21627;48.216;16.482;2024-03-07T11:42:52;32.22;;;17.27;;
35518;SDS011;21627;48.216;16.482;2024-03-07T11:45:20;31.50;;;17.30;;
35518;SDS011;21627;48.216;16.482;2024-03-07T11:47:56;31.05;;;17.77;;
35518;SDS011;21627;48.216;16.482;2024-03-07T11:50:27;39.28;;;18.63;;
35518;SDS011;21627;48.216;16.482;2024-03-07T11:52:55;30.52;;;17.65;;
35518;SDS011;21627;48.216;16.482;2024-03-07T11:55:23;29.92;;;18.40;;
35518;SDS011;21627;48.216;16.482;2024-03-07T11:57:50;33.75;;;17.88;;
35518;SDS011;21627;48.216;16.482;2024-03-07T12:00:18;30.67;;;16.65;;
35518;SDS011;21627;48.216;16.482;2024-03-07T12:02:47;31.90;;;16.85;;
35518;SDS011;21627;48.216;16.482;2024-03-07T12:05:15;31.98;;;18.08;;
35518;SDS011;21627;48.216;16.482;2024-03-07T12:07:43;34.88;;;18.85;;
35518;SDS011;21627;48.216;16.482;2024-03-07T12:10:11;36.55;;;19.55;;
35518;SDS011;21627;48.216;16.482;2024-03-07T12:12:38;36.85;;;19.55;;
35518;SDS011;21627;48.216;16.482;2024-03-07T12:15:06;34.80;;;19.42;;
35518;SDS011;21627;48.216;16.482;2024-03-07T12:17:46;33.00;;;19.25;;
35518;SDS011;21627;48.216;16.482;2024-03-07T12:20:16;52.10;;;20.67;;
35518;SDS011;21627;48.216;16.482;2024-03-07T12:22:57;39.15;;;20.85;;
35518;SDS011;21627;48.216;16.482;2024-03-07T12:25:30;36.60;;;21.13;;
35518;SDS011;21627;48.216;16.482;2024-03-07T12:28:09;35.30;;;19.73;;
35518;SDS011;21627;48.216;16.482;2024-03-07T12:30:48;44.38;;;22.15;;
35518;SDS011;21627;48.216;16.482;2024-03-07T12:33:18;35.40;;;20.52;;
35518;SDS011;21627;48.216;16.482;2024-03-07T12:38:16;35.20;;;19.23;;
35518;SDS011;21627;48.216;16.482;2024-03-07T12:40:44;34.70;;;20.05;;
35518;SDS011;21627;48.216;16.482;2024-03-07T12:43:15;36.35;;;20.73;;
35518;SDS011;21627;48.216;16.482;2024-03-07T12:45:49;40.42;;;19.27;;
35518;SDS011;21627;48.216;16.482;2024-03-07T12:48:18;32.75;;;19.70;;
35518;SDS011;21627;48.216;16.482;2024-03-07T12:50:48;32.95;;;18.40;;
35518;SDS011;21627;48.216;16.482;2024-03-07T12:53:20;33.00;;;18.15;;
35518;SDS011;21627;48.216;16.482;2024-03-07T12:55:48;39.67;;;18.20;;
35518;SDS011;21627;48.216;16.482;2024-03-07T12:58:18;34.47;;;19.08;;
35518;SDS011;21627;48.216;16.482;2024-03-07T13:00:53;33.83;;;18.45;;
35518;SDS011;21627;48.216;16.482;2024-03-07T13:03:25;34.70;;;18.17;;
35518;SDS011;21627;48.216;16.482;2024-03-07T13:05:59;35.15;;;18.88;;
35518;SDS011;21627;48.216;16.482;2024-03-07T13:08:31;26.25;;;16.90;;
35518;SDS011;21627;48.216;16.482;2024-03-07T13:10:59;34.45;;;18.75;;
35518;SDS011;21627;48.216;16.482;2024-03-07T13:13:27;30.85;;;17.75;;
35518;SDS011;21627;48.216;16.482;2024-03-07T13:15:55;33.25;;;19.42;;
35518;SDS011;21627;48.216;16.482;2024-03-07T13:18:22;36.33;;;18.83;;
35518;SDS011;21627;48.216;16.482;2024-03-07T13:20:50;33.50;;;18.23;;
35518;SDS011;21627;48.216;16.482;2024-03-07T13:23:18;34.72;;;19.15;;
35518;SDS011;21627;48.216;16.482;2024-03-07T13:25:46;39.53;;;19.25;;
35518;SDS011;21627;48.216;16.482;2024-03-07T13:28:15;37.20;;;19.55;;
35518;SDS011;21627;48.216;16.482;2024-03-07T13:30:51;35.00;;;19.98;;
35518;SDS011;21627;48.216;16.482;2024-03-07T13:33:21;36.03;;;21.50;;
35518;SDS011;21627;48.216;16.482;2024-03-07T13:35:51;35.50;;;19.83;;
35518;SDS011;21627;48.216;16.482;2024-03-07T13:38:19;35.13;;;20.35;;
35518;SDS011;21627;48.216;16.482;2024-03-07T13:40:46;36.33;;;18.92;;
35518;SDS011;21627;48.216;16.482;2024-03-07T13:43:16;36.70;;;19.45;;
35518;SDS011;21627;48.216;16.482;2024-03-07T13:45:44;36.03;;;20.10;;
35518;SDS011;21627;48.216;16.482;2024-03-07T13:48:11;36.95;;;19.23;;
35518;SDS011;21627;48.216;16.482;2024-03-07T13:50:41;32.83;;;20.08;;
35518;SDS011;21627;48.216;16.482;2024-03-07T13:53:25;32.20;;;17.58;;
35518;SDS011;21627;48.216;16.482;2024-03-07T13:56:01;35.58;;;19.15;;
35518;SDS011;21627;48.216;16.482;2024-03-07T14:17:17;35.53;;;19.13;;
35518;SDS011;21627;48.216;16.482;2024-03-07T14:23:39;40.20;;;19.23;;
35518;SDS011;21627;48.216;16.482;2024-03-07T14:29:35;44.17;;;21.25;;
35518;SDS011;21627;48.216;16.482;2024-03-07T14:32:18;33.42;;;19.08;;
35518;SDS011;21627;48.216;16.482;2024-03-07T14:34:57;37.80;;;20.02;;
35518;SDS011;21627;48.216;16.482;2024-03-07T14:37:36;36.38;;;19.45;;
35518;SDS011;21627;48.216;16.482;2024-03-07T14:40:14;37.47;;;21.52;;
35518;SDS011;21627;48.216;16.482;2024-03-07T14:42:51;40.53;;;20.27;;
35518;SDS011;21627;48.216;16.482;2024-03-07T14:45:25;38.58;;;20.95;;
35518;SDS011;21627;48.216;16.482;2024-03-07T14:47:58;52.90;;;22.70;;
35518;SDS011;21627;48.216;16.482;2024-03-07T14:50:26;42.30;;;22.55;;
35518;SDS011;21627;48.216;16.482;2024-03-07T14:52:56;47.90;;;25.25;;
35518;SDS011;21627;48.216;16.482;2024-03-07T14:55:23;52.13;;;26.77;;
35518;SDS011;21627;48.216;16.482;2024-03-07T14:57:50;49.40;;;27.67;;
35518;SDS011;21627;48.216;16.482;2024-03-07T15:00:18;54.88;;;28.42;;
35518;SDS011;21627;48.216;16.482;2024-03-07T15:02:49;58.78;;;27.67;;
35518;SDS011;21627;48.216;16.482;2024-03-07T15:05:17;58.15;;;29.67;;